Time;durP1;ratioP1;P1;durP2;ratioP2;P2;SDS_P1;SDS_P2;PMS_P1;PMS_P2;Temp;Humidity;BMP_temperature;BMP_pressure;BME280_temperature;BME280_humidity;BME280_pressure;Samples;Min_cycle;Max_cycle;Signal;HPM_P1;HPM_P2
2023/06/20 13:14:34;;;;;;;2.60;1.92;;;;;;;33.25;36.89;100780.13;5051499;28;20414;-62
2023/06/20 13:16:59;;;;;;;2.92;1.80;;;;;;;33.26;35.06;100773.25;5037213;28;20044;-62
2023/06/20 13:19:25;;;;;;;2.92;1.70;;;;;;;33.33;34.64;100776.19;5026921;28;20037;-59
2023/06/20 13:21:50;;;;;;;2.10;1.70;;;;;;;33.18;34.81;100768.66;5039663;28;20112;-62
2023/06/20 13:24:16;;;;;;;3.30;2.10;;;;;;;33.14;35.71;100762.94;5041687;28;20593;-63
2023/06/20 13:26:41;;;;;;;2.08;1.75;;;;;;;33.05;36.46;100757.56;5043316;28;20284;-62
2023/06/20 13:29:06;;;;;;;3.58;1.90;;;;;;;33.40;36.55;100741.28;5037779;28;20036;-62
2023/06/20 13:31:32;;;;;;;3.20;1.80;;;;;;;33.42;34.84;100750.31;5044016;28;20480;-63
2023/06/20 13:33:58;;;;;;;3.95;1.77;;;;;;;33.29;34.65;100753.34;5042132;28;20091;-62
2023/06/20 13:36:23;;;;;;;2.83;1.83;;;;;;;33.22;35.28;100735.38;5043384;28;20046;-62
2023/06/20 13:38:48;;;;;;;2.53;1.70;;;;;;;33.46;35.56;100736.94;5049078;28;20419;-63
2023/06/20 13:41:13;;;;;;;4.80;1.90;;;;;;;33.73;34.01;100727.03;5042320;28;20382;-62
2023/06/20 13:43:39;;;;;;;4.00;1.80;;;;;;;33.72;33.61;100730.28;5042722;28;20272;-59
2023/06/20 13:46:04;;;;;;;2.15;1.80;;;;;;;33.63;34.15;100732.63;5034647;28;20285;-60
2023/06/20 13:48:30;;;;;;;3.40;1.90;;;;;;;33.32;34.02;100743.25;5041480;28;20029;-59
2023/06/20 13:50:55;;;;;;;3.42;1.70;;;;;;;32.73;35.37;100733.47;5042635;28;20703;-60
2023/06/20 13:53:21;;;;;;;2.00;1.80;;;;;;;32.58;36.44;100728.78;5042625;28;20037;-60
2023/06/20 13:55:46;;;;;;;2.15;1.75;;;;;;;32.40;35.94;100722.84;5042945;28;20798;-60
2023/06/20 13:58:12;;;;;;;3.30;1.70;;;;;;;32.30;35.82;100721.44;5041053;28;20029;-59
2023/06/20 14:00:38;;;;;;;2.88;1.90;;;;;;;32.29;35.95;100719.81;5042854;28;20467;-60
2023/06/20 14:03:04;;;;;;;3.38;1.92;;;;;;;32.10;36.27;100717.88;5030135;28;20251;-60
2023/06/20 14:05:30;;;;;;;1.92;1.73;;;;;;;31.90;37.05;100713.47;5033910;28;20029;-59
2023/06/20 14:07:55;;;;;;;2.73;1.90;;;;;;;31.86;37.34;100710.56;5034932;28;20033;-60
2023/06/20 14:10:20;;;;;;;3.25;1.80;;;;;;;31.86;37.83;100710.56;5041436;28;20291;-60
2023/06/20 14:12:47;;;;;;;3.60;1.90;;;;;;;31.78;38.11;100697.38;5031592;28;20057;-59
2023/06/20 14:15:13;;;;;;;4.10;2.08;;;;;;;31.58;38.45;100698.63;5033180;28;20057;-58
2023/06/20 14:17:39;;;;;;;4.05;2.28;;;;;;;31.33;39.01;100699.00;5039222;28;20029;-60
2023/06/20 14:20:07;;;;;;;4.10;2.10;;;;;;;31.31;38.89;100701.38;5038331;28;20049;-60
2023/06/20 14:22:33;;;;;;;2.80;2.20;;;;;;;31.29;38.64;100706.63;5034480;28;20026;-60
2023/06/20 14:24:58;;;;;;;3.22;2.00;;;;;;;31.00;38.97;100694.66;5026561;28;20444;-61
2023/06/20 14:27:26;;;;;;;3.20;1.93;;;;;;;30.75;39.36;100699.78;5018773;28;20361;-60
2023/06/20 14:29:51;;;;;;;3.13;2.00;;;;;;;30.53;40.82;100702.50;5025564;28;20290;-59
2023/06/20 14:32:17;;;;;;;3.85;2.10;;;;;;;30.35;40.13;100700.06;5021647;28;20029;-59
2023/06/20 14:34:43;;;;;;;2.80;1.95;;;;;;;30.18;41.45;100692.78;5027203;28;20387;-59
2023/06/20 14:37:09;;;;;;;3.25;1.95;;;;;;;29.93;41.77;100685.66;5027101;28;20043;-59
2023/06/20 14:39:34;;;;;;;2.75;2.00;;;;;;;29.78;43.60;100692.13;5027199;28;20519;-59
2023/06/20 14:41:59;;;;;;;3.95;2.03;;;;;;;29.66;42.22;100695.88;5026214;28;20052;-59
2023/06/20 14:44:25;;;;;;;4.65;2.17;;;;;;;29.58;43.35;100696.84;5016584;28;20159;-59
2023/06/20 14:46:51;;;;;;;5.07;2.22;;;;;;;29.32;44.68;100680.34;5029067;28;20108;-60
2023/06/20 14:49:16;;;;;;;4.10;2.10;;;;;;;29.19;46.29;100671.09;5018595;28;20090;-59
2023/06/20 14:51:41;;;;;;;6.20;2.42;;;;;;;29.19;46.21;100671.91;5029268;28;20033;-60
2023/06/20 14:54:06;;;;;;;3.57;2.30;;;;;;;29.13;46.15;100676.19;5028366;28;21288;-59
2023/06/20 14:56:32;;;;;;;4.13;2.45;;;;;;;29.09;46.38;100689.41;5024203;28;20288;-58
2023/06/20 14:58:57;;;;;;;3.30;2.20;;;;;;;29.09;45.98;100692.22;5026049;28;20395;-60
2023/06/20 15:01:22;;;;;;;3.00;2.13;;;;;;;29.13;46.37;100720.63;5025479;28;20292;-59
2023/06/20 15:03:48;;;;;;;6.07;2.40;;;;;;;28.89;46.72;100741.28;5023976;28;20475;-59
2023/06/20 15:06:13;;;;;;;5.63;2.00;;;;;;;28.06;50.41;100734.16;5017450;28;20316;-60
2023/06/20 15:08:38;;;;;;;7.63;2.20;;;;;;;27.16;54.82;100728.13;5022154;28;20287;-60
2023/06/20 15:11:03;;;;;;;3.85;2.00;;;;;;;26.52;58.24;100719.19;5021659;28;20072;-59
2023/06/20 15:13:29;;;;;;;5.07;2.35;;;;;;;26.23;60.41;100711.53;5020033;28;20045;-59
2023/06/20 15:15:54;;;;;;;5.95;2.20;;;;;;;25.91;62.86;100708.22;5025479;28;20022;-59
2023/06/20 15:18:19;;;;;;;5.35;2.33;;;;;;;25.79;66.31;100705.28;5008859;28;20025;-61
2023/06/20 15:20:45;;;;;;;12.63;3.63;;;;;;;25.51;74.37;100732.97;5008178;28;20472;-61
2023/06/20 15:23:10;;;;;;;10.77;3.87;;;;;;;24.94;79.47;100752.81;5008640;28;20105;-60
2023/06/20 15:25:35;;;;;;;14.52;4.68;;;;;;;24.42;84.98;100775.22;5009210;28;20299;-61
2023/06/20 15:28:00;;;;;;;11.15;4.30;;;;;;;23.79;93.27;100786.47;5019775;28;20039;-60
2023/06/20 15:30:27;;;;;;;10.38;3.85;;;;;;;23.24;95.07;100738.25;5027601;28;20040;-61
2023/06/20 15:32:53;;;;;;;7.25;3.65;;;;;;;23.26;97.32;100731.16;5028584;28;20057;-59
2023/06/20 15:35:18;;;;;;;8.10;3.30;;;;;;;23.30;95.40;100720.16;5023273;28;20108;-60
2023/06/20 15:37:44;;;;;;;6.50;3.10;;;;;;;23.39;98.55;100729.44;5022457;28;20053;-61
2023/06/20 15:40:09;;;;;;;5.22;2.80;;;;;;;23.44;97.00;100711.69;5028637;28;20070;-61
2023/06/20 15:42:35;;;;;;;5.38;3.17;;;;;;;23.49;97.76;100717.16;5028516;28;20022;-60
2023/06/20 15:45:04;;;;;;;5.13;2.83;;;;;;;23.47;96.28;100722.22;5026591;28;20026;-60
2023/06/20 15:47:32;;;;;;;6.30;3.45;;;;;;;23.63;99.94;100717.06;5015557;28;20044;-60
2023/06/20 15:49:59;;;;;;;4.75;3.30;;;;;;;23.49;96.46;100722.75;5007523;28;20044;-61
2023/06/20 15:52:24;;;;;;;4.80;3.07;;;;;;;23.54;96.54;100733.84;5009601;28;20564;-60
2023/06/20 15:54:50;;;;;;;5.78;3.35;;;;;;;23.69;100.00;100747.47;5008524;28;20280;-61
2023/06/20 15:57:15;;;;;;;4.18;3.00;;;;;;;23.65;98.64;100790.50;5013529;28;20033;-60
2023/06/20 15:59:40;;;;;;;4.80;2.92;;;;;;;23.42;97.81;100817.66;5026595;28;20083;-61
2023/06/20 16:02:19;;;;;;;5.85;3.28;;;;;;;23.33;100.00;100853.22;5023497;28;20040;-63
2023/06/20 16:04:46;;;;;;;3.88;2.58;;;;;;;23.08;100.00;100855.47;5027011;28;20025;-60
2023/06/20 16:07:11;;;;;;;5.63;2.90;;;;;;;23.07;100.00;100850.19;5024698;28;20052;-61
2023/06/20 16:09:36;;;;;;;4.93;2.90;;;;;;;22.97;100.00;100849.25;5024041;28;20111;-60
2023/06/20 16:12:02;;;;;;;4.50;2.70;;;;;;;22.97;100.00;100852.06;5023488;28;20040;-61
2023/06/20 16:14:27;;;;;;;4.93;2.72;;;;;;;22.99;100.00;100857.34;5026776;28;20311;-61
2023/06/20 16:16:53;;;;;;;4.88;3.00;;;;;;;22.75;100.00;100858.38;5013873;28;20078;-61
2023/06/20 16:19:19;;;;;;;5.13;3.03;;;;;;;22.66;100.00;100856.63;5007469;28;20028;-61
2023/06/20 16:21:44;;;;;;;4.20;2.90;;;;;;;22.79;100.00;100855.78;5008187;28;20021;-61
2023/06/20 16:24:09;;;;;;;4.75;2.72;;;;;;;22.79;100.00;100864.19;5007685;28;20034;-61
2023/06/20 16:26:35;;;;;;;4.32;3.10;;;;;;;22.83;100.00;100867.19;5007563;28;20061;-61
2023/06/20 16:29:00;;;;;;;6.03;3.50;;;;;;;22.74;100.00;100864.28;5007245;28;20033;-60
2023/06/20 16:31:25;;;;;;;6.95;3.40;;;;;;;22.72;100.00;100864.63;5008166;28;20778;-60
2023/06/20 16:33:51;;;;;;;6.05;3.40;;;;;;;22.61;100.00;100857.56;5021858;28;20523;-61
2023/06/20 16:36:16;;;;;;;5.20;3.30;;;;;;;22.66;100.00;100867.84;5027131;28;20036;-61
2023/06/20 16:38:42;;;;;;;5.05;3.10;;;;;;;22.68;100.00;100865.53;5026907;28;20178;-60
2023/06/20 16:41:07;;;;;;;6.57;3.30;;;;;;;22.64;99.58;100864.50;5027112;28;20104;-61
2023/06/20 16:43:32;;;;;;;6.00;3.27;;;;;;;22.83;100.00;100865.22;5026243;28;20033;-61
2023/06/20 16:45:58;;;;;;;7.10;3.42;;;;;;;23.23;99.49;100863.53;5027465;28;20869;-61
2023/06/20 16:48:23;;;;;;;4.13;2.85;;;;;;;23.57;97.70;100864.97;5027409;28;20088;-60
2023/06/20 16:50:48;;;;;;;5.00;3.37;;;;;;;23.56;99.11;100868.91;5026392;28;20071;-61
2023/06/20 16:53:13;;;;;;;5.37;3.33;;;;;;;23.57;99.94;100864.97;5017358;28;20303;-61
2023/06/20 16:55:39;;;;;;;5.07;3.30;;;;;;;23.44;97.15;100865.84;5023073;28;20666;-60
2023/06/20 16:58:05;;;;;;;4.82;3.33;;;;;;;23.34;99.39;100866.09;5025248;28;20324;-61
2023/06/20 17:00:30;;;;;;;4.78;3.22;;;;;;;23.16;96.92;100870.69;5027035;28;20033;-60
2023/06/20 17:02:55;;;;;;;5.55;3.50;;;;;;;23.07;98.32;100883.81;5015541;28;20037;-60
2023/06/20 17:05:21;;;;;;;5.15;3.40;;;;;;;22.98;96.98;100886.50;5007007;28;20058;-61
2023/06/20 17:07:46;;;;;;;4.88;3.55;;;;;;;22.91;98.37;100886.06;5012112;28;20511;-60
2023/06/20 17:10:12;;;;;;;4.78;3.45;;;;;;;22.90;98.18;100887.22;5030406;28;20487;-61
2023/06/20 17:12:37;;;;;;;4.00;3.30;;;;;;;22.76;97.30;100881.63;5013874;28;20099;-61
2023/06/20 17:15:03;;;;;;;6.38;3.53;;;;;;;22.79;100.00;100876.22;5021616;28;20025;-60
2023/06/20 17:17:29;;;;;;;6.53;3.42;;;;;;;22.68;98.39;100871.97;5013195;28;20451;-61
2023/06/20 17:19:54;;;;;;;5.95;3.50;;;;;;;22.66;99.95;100876.22;5011908;28;20022;-60
2023/06/20 17:22:19;;;;;;;5.13;3.43;;;;;;;22.67;100.00;100873.13;5020957;28;20014;-61
2023/06/20 17:24:44;;;;;;;5.13;3.53;;;;;;;22.70;100.00;100869.69;5007148;28;20292;-61
2023/06/20 17:27:11;;;;;;;5.32;3.75;;;;;;;22.66;100.00;100868.66;5025221;28;20770;-61
2023/06/20 17:29:36;;;;;;;5.00;3.70;;;;;;;22.61;99.58;100865.09;5026497;28;20037;-59
2023/06/20 17:32:02;;;;;;;4.47;3.60;;;;;;;22.58;100.00;100872.19;5025654;28;20183;-60
2023/06/20 17:34:28;;;;;;;5.05;3.40;;;;;;;22.51;100.00;100872.59;5024967;28;20041;-60
2023/06/20 17:36:53;;;;;;;5.07;3.67;;;;;;;22.44;97.92;100871.34;5024493;28;20029;-61
2023/06/20 17:39:22;;;;;;;5.20;3.97;;;;;;;22.42;100.00;100882.84;5006729;28;20397;-61
2023/06/20 17:41:48;;;;;;;4.93;3.45;;;;;;;22.36;99.77;100878.50;5010499;28;20136;-60
2023/06/20 17:44:15;;;;;;;5.80;3.50;;;;;;;22.40;100.00;100881.47;5024974;28;20045;-62
2023/06/20 17:46:41;;;;;;;6.80;4.23;;;;;;;22.48;99.88;100883.56;5027132;28;20025;-61
2023/06/20 17:49:06;;;;;;;5.60;4.00;;;;;;;22.43;100.00;100897.66;5024674;28;20464;-61
2023/06/20 17:51:32;;;;;;;5.65;4.10;;;;;;;22.43;100.00;100898.50;5020474;28;20076;-61
2023/06/20 17:53:57;;;;;;;6.07;4.00;;;;;;;22.42;100.00;100891.25;5026309;28;20136;-61
2023/06/20 17:56:22;;;;;;;7.50;4.20;;;;;;;22.33;100.00;100889.47;5015281;28;20030;-61
2023/06/20 17:58:52;;;;;;;4.90;3.97;;;;;;;22.36;100.00;100883.25;5012446;28;20033;-61
2023/06/20 18:01:18;;;;;;;5.63;3.95;;;;;;;22.33;100.00;100878.28;5015441;28;20273;-61
2023/06/20 18:03:43;;;;;;;6.32;4.35;;;;;;;22.21;100.00;100882.41;5021668;28;20037;-61
2023/06/20 18:06:08;;;;;;;5.43;4.40;;;;;;;22.15;100.00;100888.38;5026866;28;20036;-61
2023/06/20 18:08:33;;;;;;;7.00;4.65;;;;;;;22.15;100.00;100880.00;5026938;28;20400;-60
2023/06/20 18:10:59;;;;;;;4.33;3.93;;;;;;;22.12;100.00;100869.44;5028798;28;20040;-61
2023/06/20 18:13:24;;;;;;;6.78;4.47;;;;;;;22.17;100.00;100884.16;5023946;28;20799;-61
2023/06/20 18:15:50;;;;;;;5.60;4.70;;;;;;;22.30;100.00;100879.72;5023316;28;20076;-61
2023/06/20 18:18:15;;;;;;;6.37;4.50;;;;;;;22.31;100.00;100883.38;5028359;28;20033;-61
2023/06/20 18:20:40;;;;;;;6.50;4.53;;;;;;;22.36;100.00;100886.06;5028988;28;20755;-61
2023/06/20 18:23:05;;;;;;;5.97;4.57;;;;;;;22.36;100.00;100886.88;5022685;28;20353;-61
2023/06/20 18:25:31;;;;;;;5.95;4.40;;;;;;;22.35;100.00;100890.81;5023463;28;20486;-61
2023/06/20 18:27:56;;;;;;;5.05;4.10;;;;;;;22.33;100.00;100900.66;5020950;28;20030;-60
2023/06/20 18:30:21;;;;;;;5.68;4.53;;;;;;;22.33;100.00;100883.88;5019194;28;20126;-61
2023/06/20 18:32:47;;;;;;;6.38;4.18;;;;;;;22.28;100.00;100885.63;5019967;28;20116;-60
2023/06/20 18:35:12;;;;;;;6.07;4.70;;;;;;;22.40;100.00;100889.88;5025476;28;20056;-61
2023/06/20 18:37:39;;;;;;;5.88;4.65;;;;;;;22.33;100.00;100893.09;5028586;28;20092;-60
2023/06/20 18:40:05;;;;;;;5.82;4.60;;;;;;;22.31;100.00;100916.94;5023393;28;20028;-60
2023/06/20 18:42:30;;;;;;;5.63;4.72;;;;;;;22.26;100.00;100924.28;5020913;28;20044;-61
2023/06/20 18:44:56;;;;;;;6.53;4.97;;;;;;;22.25;100.00;100925.44;5028776;28;20025;-60
2023/06/20 18:47:22;;;;;;;6.30;5.30;;;;;;;22.18;100.00;100930.56;5030204;28;20061;-61
2023/06/20 18:49:47;;;;;;;5.65;5.03;;;;;;;22.09;100.00;100932.38;5026722;28;20360;-60
2023/06/20 18:52:12;;;;;;;6.60;5.17;;;;;;;22.06;100.00;100938.59;5024545;28;20040;-60
2023/06/20 18:54:38;;;;;;;6.88;5.35;;;;;;;22.01;100.00;100924.69;5038701;28;20567;-60
2023/06/20 18:57:04;;;;;;;6.30;5.70;;;;;;;21.95;100.00;100912.78;5029112;28;20380;-61
2023/06/20 18:59:30;;;;;;;6.75;5.63;;;;;;;21.81;100.00;100925.03;5024733;28;20025;-60
2023/06/20 19:01:55;;;;;;;7.25;5.43;;;;;;;21.77;100.00;100922.00;5023840;28;20489;-60
2023/06/20 19:04:20;;;;;;;6.93;5.70;;;;;;;21.73;100.00;100923.75;5028095;28;20025;-60
2023/06/20 19:06:47;;;;;;;6.50;5.53;;;;;;;21.72;100.00;100928.50;5028165;28;20288;-60
2023/06/20 19:09:12;;;;;;;6.65;5.85;;;;;;;21.74;100.00;100917.00;5026710;28;20017;-61
2023/06/20 19:11:37;;;;;;;7.13;5.82;;;;;;;21.65;100.00;100914.09;5022383;28;20421;-60
2023/06/20 19:14:05;;;;;;;6.88;6.07;;;;;;;21.61;100.00;100906.63;5027615;28;20068;-61
2023/06/20 19:16:30;;;;;;;;;;;;;;;21.79;100.00;100925.31;5029599;28;20022;-60
2023/06/20 19:18:55;;;;;;;6.83;6.13;;;;;;;21.56;100.00;100946.66;5028165;28;20355;-60
2023/06/20 19:21:21;;;;;;;7.00;6.05;;;;;;;21.53;100.00;100947.25;5020764;28;20026;-60
2023/06/20 19:23:48;;;;;;;6.95;6.05;;;;;;;21.54;100.00;100954.50;5015441;28;20483;-60
2023/06/20 19:26:13;;;;;;;6.10;5.20;;;;;;;21.45;100.00;100959.94;5019897;28;20124;-61
2023/06/20 19:28:38;;;;;;;5.53;4.75;;;;;;;21.40;100.00;100978.75;5028419;28;20048;-61
2023/06/20 19:31:04;;;;;;;5.57;4.68;;;;;;;21.42;100.00;100977.31;5028602;28;20486;-60
2023/06/20 19:33:29;;;;;;;7.35;6.63;;;;;;;21.33;100.00;100984.69;5016712;28;20038;-60
2023/06/20 19:35:55;;;;;;;6.75;5.50;;;;;;;21.31;100.00;100974.94;5017951;28;20661;-60
2023/06/20 19:38:20;;;;;;;6.55;5.85;;;;;;;21.25;100.00;100985.34;5028368;28;20036;-60
2023/06/20 19:40:45;;;;;;;6.50;5.57;;;;;;;21.20;100.00;100989.03;5021437;28;20060;-61
2023/06/20 19:43:11;;;;;;;7.17;6.33;;;;;;;21.22;100.00;100999.88;5009260;28;20551;-61
2023/06/20 19:45:36;;;;;;;9.13;8.23;;;;;;;21.22;100.00;101009.09;5022884;28;20292;-60
2023/06/20 19:48:02;;;;;;;8.80;7.85;;;;;;;21.18;100.00;101030.38;5028418;28;20045;-60
2023/06/20 19:50:27;;;;;;;8.57;7.60;;;;;;;21.10;100.00;101028.25;5026806;28;20034;-61
2023/06/20 19:52:52;;;;;;;8.63;7.80;;;;;;;21.08;100.00;101038.88;5027541;28;20491;-61
2023/06/20 19:55:18;;;;;;;7.90;7.10;;;;;;;21.02;100.00;101053.19;5022007;28;20104;-60
2023/06/20 19:57:45;;;;;;;9.20;7.82;;;;;;;21.01;100.00;101063.53;5027931;28;20793;-60
2023/06/20 20:00:11;;;;;;;7.95;6.45;;;;;;;20.92;100.00;101074.50;5027976;28;20033;-60
2023/06/20 20:02:36;;;;;;;7.95;6.47;;;;;;;20.80;100.00;101057.31;5028287;28;20025;-61
2023/06/20 20:05:01;;;;;;;7.80;6.43;;;;;;;20.78;100.00;101051.19;5022048;28;20101;-61
2023/06/20 20:07:27;;;;;;;7.03;6.05;;;;;;;20.79;100.00;101041.72;5021038;28;20612;-61
2023/06/20 20:09:52;;;;;;;8.93;7.35;;;;;;;20.86;100.00;101036.59;5026819;28;20036;-60
2023/06/20 20:12:18;;;;;;;6.87;6.00;;;;;;;20.80;100.00;101042.53;5010520;28;20034;-60
2023/06/20 20:14:43;;;;;;;7.55;6.38;;;;;;;20.80;100.00;101040.56;5008863;28;20328;-60
2023/06/20 20:17:09;;;;;;;7.25;6.03;;;;;;;20.75;100.00;101034.22;5008539;28;20425;-60
2023/06/20 20:19:35;;;;;;;8.20;6.28;;;;;;;20.75;100.00;101039.78;5007445;28;20072;-60
2023/06/20 20:22:01;;;;;;;7.82;6.20;;;;;;;20.70;100.00;101038.72;5007349;28;20465;-60
2023/06/20 20:24:26;;;;;;;7.38;6.43;;;;;;;20.71;100.00;101040.38;5021031;28;20044;-60
2023/06/20 20:26:52;;;;;;;8.37;6.50;;;;;;;20.69;100.00;101045.44;5020270;28;20037;-60
2023/06/20 20:29:18;;;;;;;7.50;6.65;;;;;;;20.58;100.00;101049.44;5007027;28;20744;-61
2023/06/20 20:31:43;;;;;;;7.43;6.63;;;;;;;20.54;100.00;101047.53;5008161;28;20022;-60
2023/06/20 20:34:09;;;;;;;7.70;6.78;;;;;;;20.55;100.00;101050.03;5006336;28;20034;-60
2023/06/20 20:36:34;;;;;;;9.10;7.15;;;;;;;20.53;100.00;101041.13;5016350;28;20033;-60
2023/06/20 20:38:59;;;;;;;8.55;6.88;;;;;;;20.55;100.00;101041.66;5027238;28;20022;-60
2023/06/20 20:41:25;;;;;;;7.93;7.10;;;;;;;20.51;100.00;101043.34;5027606;28;20124;-60
2023/06/20 20:43:50;;;;;;;7.90;7.10;;;;;;;20.47;100.00;101047.84;5026814;28;20269;-58
2023/06/20 20:46:19;;;;;;;9.20;7.72;;;;;;;20.47;100.00;101042.28;5026174;28;20132;-59
2023/06/20 20:48:44;;;;;;;8.45;7.50;;;;;;;20.45;100.00;101036.13;5026633;28;20036;-61
2023/06/20 20:51:10;;;;;;;9.02;7.78;;;;;;;20.41;100.00;101037.81;5025077;28;20034;-60
2023/06/20 20:53:35;;;;;;;8.45;7.45;;;;;;;20.35;100.00;101037.03;5026578;28;20051;-61
2023/06/20 20:56:00;;;;;;;8.02;7.22;;;;;;;20.32;100.00;101034.81;5014811;28;20034;-61
2023/06/20 20:58:26;;;;;;;8.25;7.43;;;;;;;20.31;100.00;101043.50;5007398;28;20080;-61
2023/06/20 21:00:51;;;;;;;8.48;7.55;;;;;;;20.30;100.00;101036.25;5008205;28;20033;-61
2023/06/20 21:03:17;;;;;;;8.45;7.60;;;;;;;20.22;100.00;101043.28;5009279;28;20635;-61
2023/06/20 21:05:43;;;;;;;8.98;7.78;;;;;;;20.32;100.00;101056.31;5027044;28;20037;-60
2023/06/20 21:08:08;;;;;;;8.40;7.43;;;;;;;20.26;100.00;101057.47;5021434;28;20549;-61
2023/06/20 21:10:34;;;;;;;9.63;7.28;;;;;;;20.16;100.00;101052.81;5022396;28;20033;-61
2023/06/20 21:13:00;;;;;;;8.40;7.60;;;;;;;20.11;100.00;101066.78;5025994;28;20056;-61
2023/06/20 21:15:26;;;;;;;8.93;8.02;;;;;;;20.06;100.00;101069.59;5024570;28;20034;-61
2023/06/20 21:17:51;;;;;;;8.60;7.80;;;;;;;20.02;100.00;101066.59;5017144;28;20045;-61
2023/06/20 21:20:16;;;;;;;9.25;7.85;;;;;;;19.93;100.00;101055.19;5024099;28;20037;-61
2023/06/20 21:22:42;;;;;;;8.80;7.95;;;;;;;19.87;100.00;101045.22;5025595;28;20456;-61
2023/06/20 21:25:08;;;;;;;9.10;8.02;;;;;;;19.89;100.00;101044.91;5019056;28;20549;-60
2023/06/20 21:27:33;;;;;;;9.07;8.18;;;;;;;19.85;100.00;101058.59;5007777;28;20041;-61
2023/06/20 21:29:58;;;;;;;8.50;7.28;;;;;;;19.80;100.00;101053.03;5029850;28;20017;-61
2023/06/20 21:32:23;;;;;;;8.38;7.53;;;;;;;19.76;100.00;101062.25;5046961;28;20029;-60
2023/06/20 21:34:49;;;;;;;8.60;7.47;;;;;;;19.76;100.00;101065.88;5033556;28;20030;-60
2023/06/20 21:37:17;;;;;;;8.32;7.05;;;;;;;19.74;100.00;101058.94;5030593;28;20037;-61
2023/06/20 21:39:43;;;;;;;8.25;6.55;;;;;;;19.67;100.00;101067.63;5010997;28;20021;-61
2023/06/20 21:42:08;;;;;;;7.60;6.65;;;;;;;19.66;100.00;101083.47;5009919;28;20536;-61
2023/06/20 21:44:34;;;;;;;7.47;6.15;;;;;;;19.61;100.00;101086.28;5025973;28;20083;-60
2023/06/20 21:47:00;;;;;;;7.10;5.97;;;;;;;19.52;100.00;101076.03;5021137;28;20112;-60
2023/06/20 21:49:26;;;;;;;6.78;6.07;;;;;;;19.44;100.00;101083.00;5010122;28;20295;-61
2023/06/20 21:51:51;;;;;;;6.97;5.90;;;;;;;19.38;100.00;101082.19;5024900;28;20025;-61
2023/06/20 21:54:17;;;;;;;6.63;5.88;;;;;;;19.37;100.00;101085.25;5019255;28;20752;-60
2023/06/20 21:56:42;;;;;;;7.72;6.22;;;;;;;19.33;100.00;101098.91;5043229;28;20369;-60
2023/06/20 21:59:08;;;;;;;7.50;5.78;;;;;;;19.32;100.00;101099.22;5012921;28;20026;-60
2023/06/20 22:01:33;;;;;;;6.65;5.50;;;;;;;19.27;100.00;101097.25;5029262;28;20551;-60
2023/06/20 22:03:58;;;;;;;7.57;6.35;;;;;;;19.25;100.00;101091.13;5023686;28;20033;-60
2023/06/20 22:06:25;;;;;;;7.18;5.95;;;;;;;19.24;100.00;101094.22;5044788;28;20468;-60
2023/06/20 22:08:51;;;;;;;7.07;6.15;;;;;;;19.20;100.00;101093.94;5027058;28;20034;-60
2023/06/20 22:11:16;;;;;;;6.53;5.80;;;;;;;19.21;100.00;101092.84;5009811;28;20042;-60
2023/06/20 22:13:43;;;;;;;7.18;5.63;;;;;;;19.12;100.00;101087.00;5013088;28;20045;-60
2023/06/20 22:16:08;;;;;;;6.57;5.65;;;;;;;19.06;100.00;101082.56;5027582;28;20400;-61
2023/06/20 22:18:33;;;;;;;6.95;5.47;;;;;;;19.03;100.00;101085.91;5025238;28;20033;-60
2023/06/20 22:20:58;;;;;;;6.35;5.40;;;;;;;19.00;100.00;101071.69;5025275;28;20037;-60
2023/06/20 22:23:24;;;;;;;6.78;5.70;;;;;;;18.99;100.00;101078.38;5018326;28;20030;-60
2023/06/20 22:25:52;;;;;;;7.32;5.78;;;;;;;18.98;100.00;101076.72;5021002;28;20077;-60
2023/06/20 22:28:17;;;;;;;;;;;;;;;19.07;100.00;101078.66;5028084;28;20353;-61
2023/06/20 22:30:43;;;;;;;7.40;5.30;;;;;;;18.95;100.00;101086.47;5029523;28;19909;-60
2023/06/20 22:33:10;;;;;;;6.75;5.70;;;;;;;18.91;100.00;101086.22;5027623;28;20042;-60
2023/06/20 22:35:36;;;;;;;7.28;5.97;;;;;;;18.88;100.00;101083.97;5028588;28;20396;-60
2023/06/20 22:38:02;;;;;;;7.15;6.05;;;;;;;18.84;100.00;101093.16;5027074;28;20158;-61
2023/06/20 22:40:27;;;;;;;6.93;5.57;;;;;;;18.82;100.00;101084.28;5029166;28;20092;-60
2023/06/20 22:42:52;;;;;;;6.90;6.20;;;;;;;18.79;100.00;101085.66;5028429;28;20120;-60
2023/06/20 22:45:18;;;;;;;7.28;6.10;;;;;;;18.75;100.00;101094.84;5028932;28;20107;-60
2023/06/20 22:47:43;;;;;;;6.93;6.22;;;;;;;18.73;100.00;101083.16;5028805;28;20029;-60
2023/06/20 22:50:09;;;;;;;7.03;6.20;;;;;;;18.71;100.00;101088.19;5028735;28;20477;-60
2023/06/20 22:52:35;;;;;;;7.05;5.80;;;;;;;18.69;100.00;101084.81;5029461;28;20034;-60
2023/06/20 22:55:00;;;;;;;7.10;6.15;;;;;;;18.65;100.00;101081.72;5019029;28;20033;-60
2023/06/20 22:57:25;;;;;;;7.63;5.93;;;;;;;18.72;100.00;101084.28;5029489;28;20448;-60
2023/06/20 22:59:50;;;;;;;8.13;6.55;;;;;;;18.69;100.00;101090.41;5028643;28;20484;-60
2023/06/20 23:02:17;;;;;;;6.63;5.88;;;;;;;18.66;100.00;101081.47;5029196;28;20041;-60
2023/06/20 23:04:42;;;;;;;6.90;6.18;;;;;;;18.64;100.00;101083.69;5027440;28;20667;-60
2023/06/20 23:07:07;;;;;;;7.43;6.47;;;;;;;18.62;100.00;101079.53;5028914;28;20080;-60
2023/06/20 23:09:33;;;;;;;7.20;6.25;;;;;;;18.59;100.00;101086.47;5028628;28;20080;-60
2023/06/20 23:11:58;;;;;;;9.00;8.20;;;;;;;18.55;100.00;101102.06;5029040;28;20412;-60
2023/06/20 23:14:25;;;;;;;10.85;9.85;;;;;;;18.51;100.00;101102.91;5027059;28;20300;-60
2023/06/20 23:16:51;;;;;;;10.02;9.13;;;;;;;18.51;100.00;101103.72;5018011;28;20630;-60
2023/06/20 23:19:17;;;;;;;10.63;9.63;;;;;;;18.50;100.00;101109.53;5024797;28;20025;-60
2023/06/20 23:21:42;;;;;;;10.52;9.55;;;;;;;18.48;100.00;101101.50;5028092;28;20037;-60
2023/06/20 23:24:08;;;;;;;10.23;9.32;;;;;;;18.46;100.00;101106.50;5025320;28;20095;-60
2023/06/20 23:26:35;;;;;;;11.15;10.23;;;;;;;18.42;100.00;101109.00;5024445;28;20022;-61
2023/06/20 23:29:04;;;;;;;8.93;8.13;;;;;;;18.41;100.00;101118.47;5021186;28;20539;-60
2023/06/20 23:31:31;;;;;;;8.48;7.57;;;;;;;18.40;100.00;101115.97;5024600;28;20037;-59
2023/06/20 23:33:57;;;;;;;8.57;7.68;;;;;;;18.46;100.00;101120.41;5012620;28;20039;-60
2023/06/20 23:36:22;;;;;;;8.52;7.72;;;;;;;18.43;100.00;101120.94;5027575;28;20034;-60
2023/06/20 23:38:48;;;;;;;7.80;7.05;;;;;;;18.44;100.00;101119.84;5026472;28;20056;-60
2023/06/20 23:41:13;;;;;;;8.10;7.28;;;;;;;18.42;100.00;101122.91;5019465;28;20042;-60
2023/06/20 23:43:43;;;;;;;9.98;7.50;;;;;;;18.42;100.00;101119.28;5011720;28;20539;-61
2023/06/20 23:46:12;;;;;;;8.90;8.00;;;;;;;18.38;100.00;101112.59;5027090;28;20028;-60
2023/06/20 23:48:37;;;;;;;8.07;7.28;;;;;;;18.36;100.00;101109.28;5026745;28;20033;-60
2023/06/20 23:51:03;;;;;;;9.15;7.82;;;;;;;18.38;100.00;101115.38;5017477;28;20045;-60
2023/06/20 23:53:29;;;;;;;8.23;7.43;;;;;;;18.35;100.00;101116.78;5025559;28;20037;-60
2023/06/20 23:55:54;;;;;;;10.20;7.53;;;;;;;18.33;100.00;101121.78;5028414;28;20456;-60
2023/06/20 23:58:19;;;;;;;8.80;7.90;;;;;;;18.29;100.00;101114.25;5022420;28;20040;-59
